<?xml version="1.0" encoding="UTF-8" standalone="no" ?>
<gpx xmlns="http://www.topografix.com/GPX/1/1" xmlns:xsi="http://www.w3.org/2001/XMLSchema-instance" xsi:schemaLocation="http://www.topografix.com/GPX/1/1 http://www.topografix.com/GPX/1/1/gpx.xsd" version="1.1" creator="VisuGPX - https://www.visugpx.com">
  <metadata>
    <name>Etape en Corse </name>
    <desc><![CDATA[Etape 4 Plage O gradelle-Scandola
Etape 5 Carges- Sagone
Etape 6 Baie de Liscia]]></desc>
  </metadata>
  <wpt lat="43.22555" lon="6.44935">
    <ele>54</ele>
    <name><![CDATA[parking]]></name>
    <desc><![CDATA[16-MAI-15 9:26:59]]></desc>
    <cmt><![CDATA[16-MAI-15 9:26:59]]></cmt>
    <type><![CDATA[user]]></type>
  </wpt>
  <wpt lat="43.23505" lon="6.4006">
    <ele>423</ele>
    <name><![CDATA[parking02]]></name>
    <desc><![CDATA[16-MAI-15 12:19:33]]></desc>
    <cmt><![CDATA[16-MAI-15 12:19:33]]></cmt>
    <type><![CDATA[user]]></type>
  </wpt>
  <wpt lat="43.21304" lon="6.4631">
    <ele>42</ele>
    <name><![CDATA[piste]]></name>
    <desc><![CDATA[Chemin]]></desc>
    <cmt><![CDATA[Chemin]]></cmt>
    <type><![CDATA[user]]></type>
  </wpt>
  <trk>
    <name><![CDATA[Tracé 001]]></name>
    <trkseg>
      <trkpt lat="42.13013" lon="8.60283">
        <ele>0.74</ele>
        <time>2017-06-05T11:15:29Z</time>
      </trkpt>
      <trkpt lat="42.13029" lon="8.60239">
        <ele>0.44</ele>
        <time>2017-06-05T11:15:45Z</time>
      </trkpt>
      <trkpt lat="42.1305" lon="8.60205">
        <ele>0.36</ele>
        <time>2017-06-05T11:15:59Z</time>
      </trkpt>
      <trkpt lat="42.13066" lon="8.60175">
        <ele>0.21</ele>
        <time>2017-06-05T11:16:12Z</time>
      </trkpt>
      <trkpt lat="42.13074" lon="8.60152">
        <ele>0.07</ele>
        <time>2017-06-05T11:16:21Z</time>
      </trkpt>
      <trkpt lat="42.13084" lon="8.60113">
        <ele>0.03</ele>
        <time>2017-06-05T11:16:35Z</time>
      </trkpt>
      <trkpt lat="42.131" lon="8.60076">
        <ele>0.23</ele>
        <time>2017-06-05T11:16:51Z</time>
      </trkpt>
      <trkpt lat="42.13112" lon="8.60047">
        <ele>0.12</ele>
        <time>2017-06-05T11:17:04Z</time>
      </trkpt>
      <trkpt lat="42.13122" lon="8.60017">
        <ele>-0.06</ele>
        <time>2017-06-05T11:17:19Z</time>
      </trkpt>
      <trkpt lat="42.1313" lon="8.59993">
        <ele>-0.04</ele>
        <time>2017-06-05T11:17:33Z</time>
      </trkpt>
      <trkpt lat="42.13139" lon="8.59968">
        <ele>-0.21</ele>
        <time>2017-06-05T11:17:47Z</time>
      </trkpt>
      <trkpt lat="42.13152" lon="8.5994">
        <ele>-0.37</ele>
        <time>2017-06-05T11:18:03Z</time>
      </trkpt>
      <trkpt lat="42.13163" lon="8.59913">
        <ele>-0.42</ele>
        <time>2017-06-05T11:18:18Z</time>
      </trkpt>
      <trkpt lat="42.13163" lon="8.59911">
        <ele>-0.4</ele>
        <time>2017-06-05T11:18:19Z</time>
      </trkpt>
      <trkpt lat="42.13166" lon="8.59897">
        <ele>-0.28</ele>
        <time>2017-06-05T11:18:25Z</time>
      </trkpt>
      <trkpt lat="42.1317" lon="8.59868">
        <ele>-0.11</ele>
        <time>2017-06-05T11:18:40Z</time>
      </trkpt>
      <trkpt lat="42.1317" lon="8.59858">
        <ele>-0.27</ele>
        <time>2017-06-05T11:18:46Z</time>
      </trkpt>
      <trkpt lat="42.13178" lon="8.59833">
        <ele>-0.41</ele>
        <time>2017-06-05T11:19:02Z</time>
      </trkpt>
      <trkpt lat="42.13184" lon="8.59817">
        <ele>-0.71</ele>
        <time>2017-06-05T11:19:17Z</time>
      </trkpt>
      <trkpt lat="42.13188" lon="8.59796">
        <ele>-0.55</ele>
        <time>2017-06-05T11:19:35Z</time>
      </trkpt>
      <trkpt lat="42.13189" lon="8.5978">
        <ele>-0.48</ele>
        <time>2017-06-05T11:19:50Z</time>
      </trkpt>
      <trkpt lat="42.13188" lon="8.59775">
        <ele>-0.48</ele>
        <time>2017-06-05T11:20:12Z</time>
      </trkpt>
      <trkpt lat="42.13189" lon="8.59772">
        <ele>-0.19</ele>
        <time>2017-06-05T11:20:30Z</time>
      </trkpt>
      <trkpt lat="42.13191" lon="8.59768">
        <ele>0.03</ele>
        <time>2017-06-05T11:20:49Z</time>
      </trkpt>
      <trkpt lat="42.13192" lon="8.59772">
        <ele>-0.41</ele>
        <time>2017-06-05T11:21:08Z</time>
      </trkpt>
      <trkpt lat="42.13193" lon="8.59772">
        <ele>-0.63</ele>
        <time>2017-06-05T11:21:36Z</time>
      </trkpt>
      <trkpt lat="42.13193" lon="8.59775">
        <ele>-0.3</ele>
        <time>2017-06-05T11:22:09Z</time>
      </trkpt>
      <trkpt lat="42.13194" lon="8.59777">
        <ele>-0.24</ele>
        <time>2017-06-05T11:22:30Z</time>
      </trkpt>
      <trkpt lat="42.132" lon="8.59777">
        <ele>-0.26</ele>
        <time>2017-06-05T11:22:55Z</time>
      </trkpt>
      <trkpt lat="42.13204" lon="8.5977">
        <ele>0.85</ele>
        <time>2017-06-05T11:23:19Z</time>
      </trkpt>
      <trkpt lat="42.13191" lon="8.59754">
        <ele>1.48</ele>
        <time>2017-06-05T11:23:42Z</time>
      </trkpt>
      <trkpt lat="42.1318" lon="8.59747">
        <ele>1</ele>
        <time>2017-06-05T11:24:04Z</time>
      </trkpt>
      <trkpt lat="42.13175" lon="8.59752">
        <ele>0.69</ele>
        <time>2017-06-05T11:24:26Z</time>
      </trkpt>
      <trkpt lat="42.13175" lon="8.59758">
        <ele>0.63</ele>
        <time>2017-06-05T11:24:37Z</time>
      </trkpt>
      <trkpt lat="42.13176" lon="8.59759">
        <ele>-0.4</ele>
        <time>2017-06-05T11:25:02Z</time>
      </trkpt>
      <trkpt lat="42.13176" lon="8.59758">
        <ele>-1.03</ele>
        <time>2017-06-05T11:29:29Z</time>
      </trkpt>
      <trkpt lat="42.13176" lon="8.59759">
        <ele>-11.04</ele>
        <time>2017-06-05T11:30:09Z</time>
      </trkpt>
      <trkpt lat="42.13176" lon="8.5976">
        <ele>-11.04</ele>
        <time>2017-06-05T11:30:10Z</time>
      </trkpt>
    </trkseg>
  </trk>
</gpx>